sensor_id;sensor_type;location;lat;lon;timestamp;P1;durP1;ratioP1;P2;durP2;ratioP2
25913;SDS011;13718;50.922;5.346;2023-05-23T00:01:20;55.88;;;30.02;;
25913;SDS011;13718;50.922;5.346;2023-05-23T00:03:46;50.92;;;28.45;;
25913;SDS011;13718;50.922;5.346;2023-05-23T00:06:13;47.30;;;28.23;;
25913;SDS011;13718;50.922;5.346;2023-05-23T00:08:38;52.85;;;29.55;;
25913;SDS011;13718;50.922;5.346;2023-05-23T00:11:04;58.97;;;31.45;;
25913;SDS011;13718;50.922;5.346;2023-05-23T00:13:30;50.63;;;28.02;;
25913;SDS011;13718;50.922;5.346;2023-05-23T00:15:58;57.97;;;30.10;;
25913;SDS011;13718;50.922;5.346;2023-05-23T00:18:24;57.70;;;31.33;;
25913;SDS011;13718;50.922;5.346;2023-05-23T00:20:50;61.40;;;30.98;;
25913;SDS011;13718;50.922;5.346;2023-05-23T00:23:16;55.95;;;30.45;;
25913;SDS011;13718;50.922;5.346;2023-05-23T00:25:46;56.85;;;30.70;;
25913;SDS011;13718;50.922;5.346;2023-05-23T00:28:17;58.40;;;32.00;;
25913;SDS011;13718;50.922;5.346;2023-05-23T00:30:42;65.55;;;32.85;;
25913;SDS011;13718;50.922;5.346;2023-05-23T00:33:08;63.03;;;32.95;;
25913;SDS011;13718;50.922;5.346;2023-05-23T00:35:34;64.03;;;33.47;;
25913;SDS011;13718;50.922;5.346;2023-05-23T00:37:59;59.08;;;35.15;;
25913;SDS011;13718;50.922;5.346;2023-05-23T00:40:26;69.18;;;36.10;;
25913;SDS011;13718;50.922;5.346;2023-05-23T00:42:52;68.53;;;34.67;;
25913;SDS011;13718;50.922;5.346;2023-05-23T00:45:17;68.82;;;35.20;;
25913;SDS011;13718;50.922;5.346;2023-05-23T00:47:43;65.22;;;33.42;;
25913;SDS011;13718;50.922;5.346;2023-05-23T00:50:11;62.78;;;32.97;;
25913;SDS011;13718;50.922;5.346;2023-05-23T00:52:38;63.03;;;32.72;;
25913;SDS011;13718;50.922;5.346;2023-05-23T00:55:05;69.07;;;34.75;;
25913;SDS011;13718;50.922;5.346;2023-05-23T00:57:33;66.07;;;33.67;;
25913;SDS011;13718;50.922;5.346;2023-05-23T01:00:04;69.00;;;34.15;;
25913;SDS011;13718;50.922;5.346;2023-05-23T01:02:43;65.03;;;32.83;;
25913;SDS011;13718;50.922;5.346;2023-05-23T01:05:10;66.35;;;33.85;;
25913;SDS011;13718;50.922;5.346;2023-05-23T01:07:39;76.75;;;35.00;;
25913;SDS011;13718;50.922;5.346;2023-05-23T01:10:05;64.20;;;34.72;;
25913;SDS011;13718;50.922;5.346;2023-05-23T01:15:07;56.80;;;30.33;;
25913;SDS011;13718;50.922;5.346;2023-05-23T01:20:02;50.88;;;26.42;;
25913;SDS011;13718;50.922;5.346;2023-05-23T01:22:41;43.53;;;25.05;;
25913;SDS011;13718;50.922;5.346;2023-05-23T01:28:18;42.70;;;23.42;;
25913;SDS011;13718;50.922;5.346;2023-05-23T01:33:13;49.00;;;23.80;;
25913;SDS011;13718;50.922;5.346;2023-05-23T01:35:40;41.70;;;24.13;;
25913;SDS011;13718;50.922;5.346;2023-05-23T01:38:07;40.75;;;23.60;;
25913;SDS011;13718;50.922;5.346;2023-05-23T01:40:33;43.55;;;23.17;;
25913;SDS011;13718;50.922;5.346;2023-05-23T01:43:00;37.97;;;22.02;;
25913;SDS011;13718;50.922;5.346;2023-05-23T01:45:26;48.72;;;23.67;;
25913;SDS011;13718;50.922;5.346;2023-05-23T01:47:53;43.13;;;23.73;;
25913;SDS011;13718;50.922;5.346;2023-05-23T01:50:21;42.67;;;23.77;;
25913;SDS011;13718;50.922;5.346;2023-05-23T01:52:47;42.83;;;23.45;;
25913;SDS011;13718;50.922;5.346;2023-05-23T01:55:15;38.28;;;22.55;;
25913;SDS011;13718;50.922;5.346;2023-05-23T01:57:46;40.17;;;23.05;;
25913;SDS011;13718;50.922;5.346;2023-05-23T02:00:14;41.35;;;23.27;;
25913;SDS011;13718;50.922;5.346;2023-05-23T02:02:41;39.63;;;23.02;;
25913;SDS011;13718;50.922;5.346;2023-05-23T02:05:06;36.88;;;21.90;;
25913;SDS011;13718;50.922;5.346;2023-05-23T02:07:34;44.03;;;23.05;;
25913;SDS011;13718;50.922;5.346;2023-05-23T02:09:59;40.13;;;23.35;;
25913;SDS011;13718;50.922;5.346;2023-05-23T02:12:25;40.97;;;21.90;;
25913;SDS011;13718;50.922;5.346;2023-05-23T02:14:52;36.97;;;22.15;;
25913;SDS011;13718;50.922;5.346;2023-05-23T02:17:19;37.95;;;22.58;;
25913;SDS011;13718;50.922;5.346;2023-05-23T02:19:46;42.50;;;22.38;;
25913;SDS011;13718;50.922;5.346;2023-05-23T02:22:11;39.90;;;22.77;;
25913;SDS011;13718;50.922;5.346;2023-05-23T02:24:37;36.60;;;22.50;;
25913;SDS011;13718;50.922;5.346;2023-05-23T02:27:03;38.88;;;22.33;;
25913;SDS011;13718;50.922;5.346;2023-05-23T02:29:29;34.40;;;20.30;;
25913;SDS011;13718;50.922;5.346;2023-05-23T02:31:55;37.08;;;20.48;;
25913;SDS011;13718;50.922;5.346;2023-05-23T02:34:20;30.63;;;18.15;;
25913;SDS011;13718;50.922;5.346;2023-05-23T02:36:46;26.83;;;16.33;;
25913;SDS011;13718;50.922;5.346;2023-05-23T02:39:11;25.00;;;15.25;;
25913;SDS011;13718;50.922;5.346;2023-05-23T02:41:37;23.80;;;14.25;;
25913;SDS011;13718;50.922;5.346;2023-05-23T02:44:03;19.55;;;12.48;;
25913;SDS011;13718;50.922;5.346;2023-05-23T02:46:28;23.60;;;12.57;;
25913;SDS011;13718;50.922;5.346;2023-05-23T02:48:54;21.85;;;11.57;;
25913;SDS011;13718;50.922;5.346;2023-05-23T02:51:20;21.88;;;11.85;;
25913;SDS011;13718;50.922;5.346;2023-05-23T02:53:45;24.33;;;12.13;;
25913;SDS011;13718;50.922;5.346;2023-05-23T02:56:11;24.55;;;12.15;;
25913;SDS011;13718;50.922;5.346;2023-05-23T02:58:37;21.95;;;12.10;;
25913;SDS011;13718;50.922;5.346;2023-05-23T03:01:04;27.02;;;12.90;;
25913;SDS011;13718;50.922;5.346;2023-05-23T03:03:29;22.50;;;12.18;;
25913;SDS011;13718;50.922;5.346;2023-05-23T03:05:56;25.50;;;12.82;;
25913;SDS011;13718;50.922;5.346;2023-05-23T03:08:22;25.15;;;11.95;;
25913;SDS011;13718;50.922;5.346;2023-05-23T03:10:48;25.85;;;12.45;;
25913;SDS011;13718;50.922;5.346;2023-05-23T03:13:14;25.33;;;12.88;;
25913;SDS011;13718;50.922;5.346;2023-05-23T03:15:40;23.45;;;13.07;;
25913;SDS011;13718;50.922;5.346;2023-05-23T03:18:05;22.92;;;12.25;;
25913;SDS011;13718;50.922;5.346;2023-05-23T03:20:31;21.67;;;11.98;;
25913;SDS011;13718;50.922;5.346;2023-05-23T03:22:57;23.70;;;12.23;;
25913;SDS011;13718;50.922;5.346;2023-05-23T03:25:23;26.20;;;13.27;;
25913;SDS011;13718;50.922;5.346;2023-05-23T03:27:48;34.80;;;13.80;;
25913;SDS011;13718;50.922;5.346;2023-05-23T03:30:14;31.38;;;13.68;;
25913;SDS011;13718;50.922;5.346;2023-05-23T03:32:39;29.20;;;13.32;;
25913;SDS011;13718;50.922;5.346;2023-05-23T03:35:06;25.65;;;13.23;;
25913;SDS011;13718;50.922;5.346;2023-05-23T03:37:32;36.72;;;13.48;;
25913;SDS011;13718;50.922;5.346;2023-05-23T03:39:57;29.75;;;13.75;;
25913;SDS011;13718;50.922;5.346;2023-05-23T03:42:23;26.38;;;12.73;;
25913;SDS011;13718;50.922;5.346;2023-05-23T03:44:49;33.03;;;13.38;;
25913;SDS011;13718;50.922;5.346;2023-05-23T03:47:14;28.30;;;13.63;;
25913;SDS011;13718;50.922;5.346;2023-05-23T03:49:40;33.08;;;14.68;;
25913;SDS011;13718;50.922;5.346;2023-05-23T03:52:05;27.80;;;13.25;;
25913;SDS011;13718;50.922;5.346;2023-05-23T03:54:31;25.25;;;12.57;;
25913;SDS011;13718;50.922;5.346;2023-05-23T03:56:57;26.95;;;14.23;;
25913;SDS011;13718;50.922;5.346;2023-05-23T03:59:22;29.92;;;15.07;;
25913;SDS011;13718;50.922;5.346;2023-05-23T04:01:48;31.75;;;14.48;;
25913;SDS011;13718;50.922;5.346;2023-05-23T04:04:13;28.60;;;15.00;;
25913;SDS011;13718;50.922;5.346;2023-05-23T04:06:41;30.60;;;15.63;;
25913;SDS011;13718;50.922;5.346;2023-05-23T04:09:06;30.98;;;14.52;;
25913;SDS011;13718;50.922;5.346;2023-05-23T04:11:32;35.28;;;15.30;;
25913;SDS011;13718;50.922;5.346;2023-05-23T04:13:58;26.70;;;15.00;;
25913;SDS011;13718;50.922;5.346;2023-05-23T04:16:25;26.45;;;14.45;;
25913;SDS011;13718;50.922;5.346;2023-05-23T04:18:51;29.58;;;14.32;;
25913;SDS011;13718;50.922;5.346;2023-05-23T04:21:18;31.23;;;15.00;;
25913;SDS011;13718;50.922;5.346;2023-05-23T04:23:44;33.10;;;15.00;;
25913;SDS011;13718;50.922;5.346;2023-05-23T04:26:10;28.20;;;14.18;;
25913;SDS011;13718;50.922;5.346;2023-05-23T04:28:36;26.13;;;14.10;;
25913;SDS011;13718;50.922;5.346;2023-05-23T04:31:04;23.17;;;13.38;;
25913;SDS011;13718;50.922;5.346;2023-05-23T04:33:29;23.98;;;13.98;;
25913;SDS011;13718;50.922;5.346;2023-05-23T04:35:55;31.15;;;13.45;;
25913;SDS011;13718;50.922;5.346;2023-05-23T04:38:21;27.50;;;13.38;;
25913;SDS011;13718;50.922;5.346;2023-05-23T04:40:49;28.90;;;13.00;;
25913;SDS011;13718;50.922;5.346;2023-05-23T04:43:16;23.13;;;12.20;;
25913;SDS011;13718;50.922;5.346;2023-05-23T04:45:43;27.85;;;12.80;;
25913;SDS011;13718;50.922;5.346;2023-05-23T04:48:09;24.92;;;12.85;;
25913;SDS011;13718;50.922;5.346;2023-05-23T04:50:37;24.55;;;12.13;;
25913;SDS011;13718;50.922;5.346;2023-05-23T04:53:04;25.52;;;12.35;;
25913;SDS011;13718;50.922;5.346;2023-05-23T04:55:30;23.55;;;12.63;;
25913;SDS011;13718;50.922;5.346;2023-05-23T04:57:56;29.08;;;11.27;;
25913;SDS011;13718;50.922;5.346;2023-05-23T05:00:21;22.52;;;10.68;;
25913;SDS011;13718;50.922;5.346;2023-05-23T05:02:47;28.55;;;11.73;;
25913;SDS011;13718;50.922;5.346;2023-05-23T05:05:13;18.70;;;10.00;;
25913;SDS011;13718;50.922;5.346;2023-05-23T05:07:38;24.30;;;11.27;;
25913;SDS011;13718;50.922;5.346;2023-05-23T05:10:04;23.48;;;10.55;;
25913;SDS011;13718;50.922;5.346;2023-05-23T05:12:30;22.30;;;11.57;;
25913;SDS011;13718;50.922;5.346;2023-05-23T05:14:56;24.75;;;11.32;;
25913;SDS011;13718;50.922;5.346;2023-05-23T05:17:22;24.17;;;12.07;;
25913;SDS011;13718;50.922;5.346;2023-05-23T05:19:48;24.05;;;12.35;;
25913;SDS011;13718;50.922;5.346;2023-05-23T05:22:14;24.20;;;11.85;;
25913;SDS011;13718;50.922;5.346;2023-05-23T05:24:40;26.48;;;12.27;;
25913;SDS011;13718;50.922;5.346;2023-05-23T05:27:05;24.45;;;11.93;;
25913;SDS011;13718;50.922;5.346;2023-05-23T05:29:31;26.20;;;12.70;;
25913;SDS011;13718;50.922;5.346;2023-05-23T05:31:57;28.55;;;12.13;;
25913;SDS011;13718;50.922;5.346;2023-05-23T05:34:25;23.13;;;12.55;;
25913;SDS011;13718;50.922;5.346;2023-05-23T05:36:51;28.40;;;12.05;;
25913;SDS011;13718;50.922;5.346;2023-05-23T05:39:21;27.90;;;12.77;;
25913;SDS011;13718;50.922;5.346;2023-05-23T05:41:48;33.95;;;12.80;;
25913;SDS011;13718;50.922;5.346;2023-05-23T05:44:13;28.75;;;13.00;;
25913;SDS011;13718;50.922;5.346;2023-05-23T05:46:39;30.80;;;12.88;;
25913;SDS011;13718;50.922;5.346;2023-05-23T05:49:05;27.83;;;13.10;;
25913;SDS011;13718;50.922;5.346;2023-05-23T05:51:30;23.48;;;12.20;;
25913;SDS011;13718;50.922;5.346;2023-05-23T05:53:56;29.45;;;12.65;;
25913;SDS011;13718;50.922;5.346;2023-05-23T05:56:22;26.75;;;13.07;;
25913;SDS011;13718;50.922;5.346;2023-05-23T05:58:47;26.50;;;12.02;;
25913;SDS011;13718;50.922;5.346;2023-05-23T06:01:13;22.50;;;12.05;;
25913;SDS011;13718;50.922;5.346;2023-05-23T06:03:39;23.85;;;11.38;;
25913;SDS011;13718;50.922;5.346;2023-05-23T06:06:05;23.85;;;11.43;;
25913;SDS011;13718;50.922;5.346;2023-05-23T06:08:32;24.88;;;11.55;;
25913;SDS011;13718;50.922;5.346;2023-05-23T06:10:58;23.08;;;10.68;;
25913;SDS011;13718;50.922;5.346;2023-05-23T06:13:24;28.63;;;12.48;;
25913;SDS011;13718;50.922;5.346;2023-05-23T06:15:49;22.75;;;11.95;;
25913;SDS011;13718;50.922;5.346;2023-05-23T06:18:15;26.38;;;12.57;;
25913;SDS011;13718;50.922;5.346;2023-05-23T06:20:41;25.65;;;12.23;;
25913;SDS011;13718;50.922;5.346;2023-05-23T06:23:07;25.98;;;12.13;;
25913;SDS011;13718;50.922;5.346;2023-05-23T06:25:32;27.33;;;11.95;;
25913;SDS011;13718;50.922;5.346;2023-05-23T06:27:58;28.45;;;13.20;;
25913;SDS011;13718;50.922;5.346;2023-05-23T06:30:24;26.25;;;13.68;;
25913;SDS011;13718;50.922;5.346;2023-05-23T06:32:50;26.58;;;13.27;;
25913;SDS011;13718;50.922;5.346;2023-05-23T06:35:16;26.92;;;15.00;;
25913;SDS011;13718;50.922;5.346;2023-05-23T06:37:42;35.30;;;14.95;;
25913;SDS011;13718;50.922;5.346;2023-05-23T06:40:10;26.00;;;13.43;;
25913;SDS011;13718;50.922;5.346;2023-05-23T06:42:39;25.77;;;14.05;;
25913;SDS011;13718;50.922;5.346;2023-05-23T06:45:05;28.20;;;14.32;;
25913;SDS011;13718;50.922;5.346;2023-05-23T06:47:31;28.73;;;14.20;;
25913;SDS011;13718;50.922;5.346;2023-05-23T06:49:56;32.88;;;13.90;;
25913;SDS011;13718;50.922;5.346;2023-05-23T06:52:22;28.52;;;14.57;;
25913;SDS011;13718;50.922;5.346;2023-05-23T06:54:47;30.88;;;14.70;;
25913;SDS011;13718;50.922;5.346;2023-05-23T06:57:13;29.55;;;13.82;;
25913;SDS011;13718;50.922;5.346;2023-05-23T06:59:39;41.63;;;16.02;;
25913;SDS011;13718;50.922;5.346;2023-05-23T07:02:05;38.17;;;16.05;;
25913;SDS011;13718;50.922;5.346;2023-05-23T07:04:30;40.78;;;16.45;;
25913;SDS011;13718;50.922;5.346;2023-05-23T07:06:56;47.33;;;17.48;;
25913;SDS011;13718;50.922;5.346;2023-05-23T07:09:22;37.88;;;16.83;;
25913;SDS011;13718;50.922;5.346;2023-05-23T07:11:47;33.50;;;15.48;;
25913;SDS011;13718;50.922;5.346;2023-05-23T07:14:13;34.85;;;15.70;;
25913;SDS011;13718;50.922;5.346;2023-05-23T07:16:40;37.08;;;14.93;;
25913;SDS011;13718;50.922;5.346;2023-05-23T07:19:05;30.25;;;13.93;;
25913;SDS011;13718;50.922;5.346;2023-05-23T07:21:31;34.33;;;14.30;;
25913;SDS011;13718;50.922;5.346;2023-05-23T07:23:56;29.55;;;12.48;;
25913;SDS011;13718;50.922;5.346;2023-05-23T07:26:22;30.77;;;13.80;;
25913;SDS011;13718;50.922;5.346;2023-05-23T07:28:48;35.78;;;13.02;;
25913;SDS011;13718;50.922;5.346;2023-05-23T07:31:14;31.50;;;12.82;;
25913;SDS011;13718;50.922;5.346;2023-05-23T07:33:40;33.35;;;12.85;;
25913;SDS011;13718;50.922;5.346;2023-05-23T07:36:05;37.38;;;13.77;;
25913;SDS011;13718;50.922;5.346;2023-05-23T07:38:31;31.02;;;12.80;;
25913;SDS011;13718;50.922;5.346;2023-05-23T07:40:57;31.33;;;12.48;;
25913;SDS011;13718;50.922;5.346;2023-05-23T07:43:22;28.17;;;11.38;;
25913;SDS011;13718;50.922;5.346;2023-05-23T07:45:48;27.27;;;12.52;;
25913;SDS011;13718;50.922;5.346;2023-05-23T07:48:13;31.13;;;10.82;;
25913;SDS011;13718;50.922;5.346;2023-05-23T07:50:39;29.00;;;10.90;;
25913;SDS011;13718;50.922;5.346;2023-05-23T07:53:05;23.35;;;9.60;;
25913;SDS011;13718;50.922;5.346;2023-05-23T07:55:31;22.35;;;9.00;;
25913;SDS011;13718;50.922;5.346;2023-05-23T07:57:56;22.42;;;9.25;;
25913;SDS011;13718;50.922;5.346;2023-05-23T08:00:22;23.20;;;8.73;;
25913;SDS011;13718;50.922;5.346;2023-05-23T08:02:48;27.00;;;9.43;;
25913;SDS011;13718;50.922;5.346;2023-05-23T08:05:14;20.33;;;7.72;;
25913;SDS011;13718;50.922;5.346;2023-05-23T08:07:39;17.65;;;6.93;;
25913;SDS011;13718;50.922;5.346;2023-05-23T08:10:05;20.23;;;7.28;;
25913;SDS011;13718;50.922;5.346;2023-05-23T08:12:31;19.63;;;7.40;;
25913;SDS011;13718;50.922;5.346;2023-05-23T08:14:57;23.17;;;7.43;;
25913;SDS011;13718;50.922;5.346;2023-05-23T08:17:23;12.90;;;6.55;;
25913;SDS011;13718;50.922;5.346;2023-05-23T08:19:49;18.73;;;7.07;;
25913;SDS011;13718;50.922;5.346;2023-05-23T08:22:15;17.92;;;7.38;;
25913;SDS011;13718;50.922;5.346;2023-05-23T08:24:40;19.45;;;7.93;;
25913;SDS011;13718;50.922;5.346;2023-05-23T08:27:06;21.08;;;7.90;;
25913;SDS011;13718;50.922;5.346;2023-05-23T08:29:32;18.45;;;8.30;;
25913;SDS011;13718;50.922;5.346;2023-05-23T08:31:59;17.20;;;7.40;;
25913;SDS011;13718;50.922;5.346;2023-05-23T08:34:25;20.33;;;7.93;;
25913;SDS011;13718;50.922;5.346;2023-05-23T08:36:51;21.27;;;7.47;;
25913;SDS011;13718;50.922;5.346;2023-05-23T08:39:16;16.67;;;7.28;;
25913;SDS011;13718;50.922;5.346;2023-05-23T08:41:42;17.10;;;6.63;;
25913;SDS011;13718;50.922;5.346;2023-05-23T08:44:08;17.38;;;7.22;;
25913;SDS011;13718;50.922;5.346;2023-05-23T08:46:33;15.82;;;6.68;;
25913;SDS011;13718;50.922;5.346;2023-05-23T08:49:07;15.52;;;6.75;;
25913;SDS011;13718;50.922;5.346;2023-05-23T08:51:34;16.00;;;6.63;;
25913;SDS011;13718;50.922;5.346;2023-05-23T08:54:02;17.52;;;6.40;;
25913;SDS011;13718;50.922;5.346;2023-05-23T08:56:30;20.55;;;6.80;;
25913;SDS011;13718;50.922;5.346;2023-05-23T08:58:56;21.38;;;6.72;;
25913;SDS011;13718;50.922;5.346;2023-05-23T09:01:22;15.52;;;6.63;;
25913;SDS011;13718;50.922;5.346;2023-05-23T09:03:50;21.17;;;7.32;;
25913;SDS011;13718;50.922;5.346;2023-05-23T09:06:15;22.55;;;7.38;;
25913;SDS011;13718;50.922;5.346;2023-05-23T09:08:45;22.48;;;7.45;;
25913;SDS011;13718;50.922;5.346;2023-05-23T09:11:11;17.30;;;6.75;;
25913;SDS011;13718;50.922;5.346;2023-05-23T09:13:37;20.73;;;6.88;;
25913;SDS011;13718;50.922;5.346;2023-05-23T09:16:08;19.05;;;6.22;;
25913;SDS011;13718;50.922;5.346;2023-05-23T09:21:10;19.25;;;6.45;;
25913;SDS011;13718;50.922;5.346;2023-05-23T09:23:37;23.80;;;6.70;;
25913;SDS011;13718;50.922;5.346;2023-05-23T09:26:05;19.90;;;6.28;;
25913;SDS011;13718;50.922;5.346;2023-05-23T09:28:32;19.10;;;5.60;;
25913;SDS011;13718;50.922;5.346;2023-05-23T09:31:02;13.63;;;5.25;;
25913;SDS011;13718;50.922;5.346;2023-05-23T09:33:37;17.83;;;6.03;;
25913;SDS011;13718;50.922;5.346;2023-05-23T09:36:14;13.13;;;5.55;;
25913;SDS011;13718;50.922;5.346;2023-05-23T09:38:41;14.10;;;6.00;;
25913;SDS011;13718;50.922;5.346;2023-05-23T09:41:07;17.48;;;5.53;;
25913;SDS011;13718;50.922;5.346;2023-05-23T09:43:39;17.38;;;5.70;;
25913;SDS011;13718;50.922;5.346;2023-05-23T09:46:13;15.05;;;5.57;;
25913;SDS011;13718;50.922;5.346;2023-05-23T09:48:39;15.02;;;6.65;;
25913;SDS011;13718;50.922;5.346;2023-05-23T09:51:10;18.23;;;5.57;;
25913;SDS011;13718;50.922;5.346;2023-05-23T09:53:35;17.98;;;5.57;;
25913;SDS011;13718;50.922;5.346;2023-05-23T09:56:02;16.48;;;5.50;;
25913;SDS011;13718;50.922;5.346;2023-05-23T09:58:28;14.13;;;5.47;;
25913;SDS011;13718;50.922;5.346;2023-05-23T10:00:58;15.55;;;5.80;;
25913;SDS011;13718;50.922;5.346;2023-05-23T10:04:09;16.20;;;5.80;;
25913;SDS011;13718;50.922;5.346;2023-05-23T10:06:34;18.77;;;5.93;;
25913;SDS011;13718;50.922;5.346;2023-05-23T10:09:06;15.45;;;6.13;;
25913;SDS011;13718;50.922;5.346;2023-05-23T10:14:22;20.67;;;6.32;;
25913;SDS011;13718;50.922;5.346;2023-05-23T10:20:11;17.10;;;7.60;;
25913;SDS011;13718;50.922;5.346;2023-05-23T10:22:39;18.50;;;6.75;;
25913;SDS011;13718;50.922;5.346;2023-05-23T10:25:07;16.98;;;6.80;;
25913;SDS011;13718;50.922;5.346;2023-05-23T10:27:37;17.45;;;5.72;;
25913;SDS011;13718;50.922;5.346;2023-05-23T10:30:04;12.93;;;5.57;;
25913;SDS011;13718;50.922;5.346;2023-05-23T10:32:31;11.45;;;5.05;;
25913;SDS011;13718;50.922;5.346;2023-05-23T10:35:00;11.95;;;5.10;;
25913;SDS011;13718;50.922;5.346;2023-05-23T10:40:33;9.18;;;4.00;;
25913;SDS011;13718;50.922;5.346;2023-05-23T10:45:51;10.15;;;3.85;;
25913;SDS011;13718;50.922;5.346;2023-05-23T10:51:05;8.93;;;4.00;;
25913;SDS011;13718;50.922;5.346;2023-05-23T10:53:39;9.43;;;3.65;;
25913;SDS011;13718;50.922;5.346;2023-05-23T10:56:07;9.13;;;3.67;;
25913;SDS011;13718;50.922;5.346;2023-05-23T10:58:39;10.75;;;4.18;;
25913;SDS011;13718;50.922;5.346;2023-05-23T11:01:05;10.32;;;4.10;;
25913;SDS011;13718;50.922;5.346;2023-05-23T11:09:15;10.73;;;4.25;;
25913;SDS011;13718;50.922;5.346;2023-05-23T11:12:02;16.05;;;5.20;;
25913;SDS011;13718;50.922;5.346;2023-05-23T11:19:36;10.43;;;4.50;;
25913;SDS011;13718;50.922;5.346;2023-05-23T11:22:03;13.35;;;4.65;;
25913;SDS011;13718;50.922;5.346;2023-05-23T11:24:50;11.68;;;4.88;;
25913;SDS011;13718;50.922;5.346;2023-05-23T11:27:39;13.60;;;4.43;;
25913;SDS011;13718;50.922;5.346;2023-05-23T11:30:06;12.20;;;4.57;;
25913;SDS011;13718;50.922;5.346;2023-05-23T11:32:34;9.27;;;4.40;;
25913;SDS011;13718;50.922;5.346;2023-05-23T11:35:01;10.57;;;4.20;;
25913;SDS011;13718;50.922;5.346;2023-05-23T11:37:28;10.52;;;4.28;;
25913;SDS011;13718;50.922;5.346;2023-05-23T11:39:56;10.25;;;3.50;;
25913;SDS011;13718;50.922;5.346;2023-05-23T11:42:22;8.98;;;3.30;;
25913;SDS011;13718;50.922;5.346;2023-05-23T11:44:49;22.58;;;4.13;;
25913;SDS011;13718;50.922;5.346;2023-05-23T11:47:16;12.18;;;3.72;;
25913;SDS011;13718;50.922;5.346;2023-05-23T11:49:43;8.75;;;3.33;;
25913;SDS011;13718;50.922;5.346;2023-05-23T11:52:11;11.45;;;3.08;;
25913;SDS011;13718;50.922;5.346;2023-05-23T11:54:39;9.50;;;2.58;;
25913;SDS011;13718;50.922;5.346;2023-05-23T11:57:06;10.63;;;2.67;;
25913;SDS011;13718;50.922;5.346;2023-05-23T11:59:31;12.90;;;2.85;;
25913;SDS011;13718;50.922;5.346;2023-05-23T12:01:58;12.52;;;2.72;;
25913;SDS011;13718;50.922;5.346;2023-05-23T12:04:24;13.20;;;2.88;;
25913;SDS011;13718;50.922;5.346;2023-05-23T12:06:50;14.90;;;3.17;;
25913;SDS011;13718;50.922;5.346;2023-05-23T12:09:16;11.52;;;3.10;;
25913;SDS011;13718;50.922;5.346;2023-05-23T12:11:43;9.63;;;2.47;;
25913;SDS011;13718;50.922;5.346;2023-05-23T12:14:12;10.55;;;3.42;;
25913;SDS011;13718;50.922;5.346;2023-05-23T12:16:41;12.10;;;3.17;;
25913;SDS011;13718;50.922;5.346;2023-05-23T12:19:13;10.23;;;2.72;;
25913;SDS011;13718;50.922;5.346;2023-05-23T12:21:44;10.85;;;2.70;;
25913;SDS011;13718;50.922;5.346;2023-05-23T12:26:44;13.00;;;3.30;;
25913;SDS011;13718;50.922;5.346;2023-05-23T12:29:29;10.38;;;3.00;;
25913;SDS011;13718;50.922;5.346;2023-05-23T12:31:59;11.85;;;2.80;;
25913;SDS011;13718;50.922;5.346;2023-05-23T12:34:26;11.48;;;2.95;;
25913;SDS011;13718;50.922;5.346;2023-05-23T12:36:56;12.07;;;2.97;;
25913;SDS011;13718;50.922;5.346;2023-05-23T12:39:28;13.30;;;3.30;;
25913;SDS011;13718;50.922;5.346;2023-05-23T12:41:55;10.82;;;2.83;;
25913;SDS011;13718;50.922;5.346;2023-05-23T12:44:31;15.98;;;2.92;;
25913;SDS011;13718;50.922;5.346;2023-05-23T12:46:57;15.80;;;3.03;;
25913;SDS011;13718;50.922;5.346;2023-05-23T12:49:23;12.63;;;2.70;;
25913;SDS011;13718;50.922;5.346;2023-05-23T12:51:48;13.90;;;3.20;;
25913;SDS011;13718;50.922;5.346;2023-05-23T12:54:14;12.55;;;3.08;;
25913;SDS011;13718;50.922;5.346;2023-05-23T12:56:40;16.80;;;3.50;;
25913;SDS011;13718;50.922;5.346;2023-05-23T12:59:05;12.07;;;2.50;;
25913;SDS011;13718;50.922;5.346;2023-05-23T13:01:33;11.95;;;3.03;;
25913;SDS011;13718;50.922;5.346;2023-05-23T13:03:59;15.10;;;3.38;;
25913;SDS011;13718;50.922;5.346;2023-05-23T13:06:25;13.55;;;2.75;;
25913;SDS011;13718;50.922;5.346;2023-05-23T13:08:51;14.63;;;3.47;;
25913;SDS011;13718;50.922;5.346;2023-05-23T13:11:18;17.83;;;3.58;;
25913;SDS011;13718;50.922;5.346;2023-05-23T13:13:48;11.30;;;3.00;;
25913;SDS011;13718;50.922;5.346;2023-05-23T13:16:17;14.63;;;3.00;;
25913;SDS011;13718;50.922;5.346;2023-05-23T13:18:43;21.17;;;3.88;;
25913;SDS011;13718;50.922;5.346;2023-05-23T13:21:08;17.52;;;3.20;;
25913;SDS011;13718;50.922;5.346;2023-05-23T13:23:34;13.85;;;3.00;;
25913;SDS011;13718;50.922;5.346;2023-05-23T13:26:01;14.25;;;2.80;;
25913;SDS011;13718;50.922;5.346;2023-05-23T13:28:27;15.73;;;3.15;;
25913;SDS011;13718;50.922;5.346;2023-05-23T13:30:53;15.15;;;3.47;;
25913;SDS011;13718;50.922;5.346;2023-05-23T13:33:18;16.83;;;3.28;;
25913;SDS011;13718;50.922;5.346;2023-05-23T13:35:46;18.25;;;2.95;;
25913;SDS011;13718;50.922;5.346;2023-05-23T13:38:14;17.17;;;3.15;;
25913;SDS011;13718;50.922;5.346;2023-05-23T13:40:40;11.13;;;3.05;;
25913;SDS011;13718;50.922;5.346;2023-05-23T13:43:05;12.32;;;3.50;;
25913;SDS011;13718;50.922;5.346;2023-05-23T13:45:31;17.38;;;2.63;;
25913;SDS011;13718;50.922;5.346;2023-05-23T13:47:57;11.90;;;2.80;;
25913;SDS011;13718;50.922;5.346;2023-05-23T13:50:23;16.95;;;3.10;;
25913;SDS011;13718;50.922;5.346;2023-05-23T13:52:49;10.88;;;2.63;;
25913;SDS011;13718;50.922;5.346;2023-05-23T13:55:15;12.75;;;2.95;;
25913;SDS011;13718;50.922;5.346;2023-05-23T13:57:41;17.05;;;3.08;;
25913;SDS011;13718;50.922;5.346;2023-05-23T14:00:07;21.83;;;2.58;;
25913;SDS011;13718;50.922;5.346;2023-05-23T14:02:33;16.58;;;3.15;;
25913;SDS011;13718;50.922;5.346;2023-05-23T14:04:58;10.43;;;2.47;;
25913;SDS011;13718;50.922;5.346;2023-05-23T14:07:24;11.57;;;2.50;;
25913;SDS011;13718;50.922;5.346;2023-05-23T14:09:49;15.10;;;2.50;;
25913;SDS011;13718;50.922;5.346;2023-05-23T14:12:15;16.48;;;3.47;;
25913;SDS011;13718;50.922;5.346;2023-05-23T14:14:41;14.68;;;3.47;;
25913;SDS011;13718;50.922;5.346;2023-05-23T14:17:06;18.13;;;3.47;;
25913;SDS011;13718;50.922;5.346;2023-05-23T14:19:32;16.25;;;3.25;;
25913;SDS011;13718;50.922;5.346;2023-05-23T14:21:57;13.40;;;2.88;;
25913;SDS011;13718;50.922;5.346;2023-05-23T14:24:23;13.32;;;3.10;;
25913;SDS011;13718;50.922;5.346;2023-05-23T14:26:48;10.57;;;2.15;;
25913;SDS011;13718;50.922;5.346;2023-05-23T14:29:14;14.68;;;2.67;;
25913;SDS011;13718;50.922;5.346;2023-05-23T14:31:40;10.20;;;2.60;;
25913;SDS011;13718;50.922;5.346;2023-05-23T14:34:06;16.17;;;2.65;;
25913;SDS011;13718;50.922;5.346;2023-05-23T14:36:32;13.90;;;2.42;;
25913;SDS011;13718;50.922;5.346;2023-05-23T14:38:57;11.32;;;2.47;;
25913;SDS011;13718;50.922;5.346;2023-05-23T14:41:23;14.52;;;2.63;;
25913;SDS011;13718;50.922;5.346;2023-05-23T14:43:48;16.15;;;2.35;;
25913;SDS011;13718;50.922;5.346;2023-05-23T14:46:16;10.95;;;2.70;;
25913;SDS011;13718;50.922;5.346;2023-05-23T14:48:42;13.30;;;2.38;;
25913;SDS011;13718;50.922;5.346;2023-05-23T14:51:07;10.63;;;2.90;;
25913;SDS011;13718;50.922;5.346;2023-05-23T14:53:34;17.33;;;2.60;;
25913;SDS011;13718;50.922;5.346;2023-05-23T14:55:59;18.35;;;2.90;;
25913;SDS011;13718;50.922;5.346;2023-05-23T14:58:25;13.27;;;2.55;;
25913;SDS011;13718;50.922;5.346;2023-05-23T15:00:51;11.27;;;2.50;;
25913;SDS011;13718;50.922;5.346;2023-05-23T15:03:17;17.17;;;2.78;;
25913;SDS011;13718;50.922;5.346;2023-05-23T15:05:42;10.60;;;2.65;;
25913;SDS011;13718;50.922;5.346;2023-05-23T15:08:09;10.18;;;2.53;;